createdAt,value
2023-03-12T00:04:40.821Z,1.37
2023-03-12T00:10:05.108Z,1.48
2023-03-12T00:15:28.584Z,1.50
2023-03-12T00:20:54.987Z,1.51
2023-03-12T00:26:17.867Z,1.53
2023-03-12T00:31:39.792Z,1.53
2023-03-12T00:37:04.182Z,1.51
2023-03-12T00:42:27.322Z,1.47
2023-03-12T00:47:48.988Z,1.38
2023-03-12T00:53:11.144Z,1.32
2023-03-12T00:58:33.006Z,1.25
2023-03-12T01:03:56.130Z,1.15
2023-03-12T01:09:19.421Z,1.03
2023-03-12T01:14:43.550Z,0.90
2023-03-12T01:20:08.495Z,0.76
2023-03-12T01:25:30.575Z,0.61
2023-03-12T01:30:53.268Z,0.57
2023-03-12T01:36:23.495Z,0.51
2023-03-12T01:41:45.545Z,0.51
2023-03-12T01:47:07.460Z,0.44
2023-03-12T01:52:36.126Z,0.33
2023-03-12T01:57:58.868Z,0.17
2023-03-12T02:03:21.513Z,0.05
2023-03-12T02:08:46.288Z,-0.06
2023-03-12T02:14:09.041Z,-0.12
2023-03-12T02:19:44.438Z,-0.13
2023-03-12T02:25:19.211Z,-0.13
2023-03-12T02:30:43.808Z,-0.17
2023-03-12T02:36:06.223Z,-0.20
2023-03-12T02:41:35.435Z,-0.28
2023-03-12T02:47:00.281Z,-0.36
2023-03-12T02:52:22.341Z,-0.44
2023-03-12T02:57:44.332Z,-0.48
2023-03-12T03:03:07.875Z,-0.57
2023-03-12T03:08:29.803Z,-0.59
2023-03-12T03:13:52.733Z,-0.62
2023-03-12T03:19:15.332Z,-0.61
2023-03-12T03:24:37.332Z,-0.63
2023-03-12T03:30:00.347Z,-0.63
2023-03-12T03:35:24.429Z,-0.61
2023-03-12T03:40:46.794Z,-0.63
2023-03-12T03:46:11.070Z,-0.69
2023-03-12T03:51:34.943Z,-0.79
2023-03-12T03:57:01.404Z,-0.86
2023-03-12T04:02:23.341Z,-0.91
2023-03-12T04:07:45.738Z,-0.96
2023-03-12T04:13:08.503Z,-0.94
2023-03-12T04:18:30.060Z,-0.91
2023-03-12T04:23:52.372Z,-0.89
2023-03-12T04:29:18.917Z,-0.89
2023-03-12T04:34:41.240Z,-0.96
2023-03-12T04:40:07.686Z,-1.08
2023-03-12T04:45:30.189Z,-1.09
2023-03-12T04:50:52.645Z,-1.08
2023-03-12T04:56:14.884Z,-1.05
2023-03-12T05:01:37.917Z,-1.04
2023-03-12T05:07:04.416Z,-1.03
2023-03-12T05:12:26.925Z,-0.97
2023-03-12T05:17:49.431Z,-0.86
2023-03-12T05:23:11.934Z,-0.75
2023-03-12T05:28:34.032Z,-0.66
2023-03-12T05:33:57.155Z,-0.57
2023-03-12T05:39:19.085Z,-0.48
2023-03-12T05:44:42.451Z,-0.36
2023-03-12T05:50:06.922Z,-0.32
2023-03-12T05:55:29.952Z,-0.21
2023-03-12T06:00:51.714Z,-0.08
2023-03-12T06:06:14.426Z,0.07
2023-03-12T06:11:37.083Z,0.12
2023-03-12T06:16:59.340Z,0.21
2023-03-12T06:22:22.261Z,0.28
2023-03-12T06:27:44.805Z,0.32
2023-03-12T06:33:09.074Z,0.49
2023-03-12T06:38:30.845Z,0.60
2023-03-12T06:43:53.030Z,0.68
2023-03-12T06:49:15.574Z,0.76
2023-03-12T06:54:38.400Z,0.87
2023-03-12T07:00:00.039Z,0.91
2023-03-12T07:05:22.109Z,1.11
2023-03-12T07:10:45.988Z,1.25
2023-03-12T07:16:08.428Z,1.35
2023-03-12T07:21:31.869Z,1.36
2023-03-12T07:26:54.089Z,1.41
2023-03-12T07:32:16.344Z,1.51
2023-03-12T07:37:38.615Z,1.64
2023-03-12T07:43:01.192Z,1.83
2023-03-12T07:48:27.138Z,1.93
2023-03-12T07:53:50.446Z,1.98
2023-03-12T07:59:12.571Z,2.19
2023-03-12T08:04:34.558Z,2.44
2023-03-12T08:09:56.506Z,2.65
2023-03-12T08:15:20.384Z,2.76
2023-03-12T08:20:42.836Z,2.92
2023-03-12T08:26:05.725Z,3.09
2023-03-12T08:31:29.059Z,3.12
2023-03-12T08:36:50.878Z,3.30
2023-03-12T08:42:14.249Z,3.41
2023-03-12T08:47:36.669Z,3.62
2023-03-12T08:52:59.366Z,3.70
2023-03-12T08:58:22.478Z,3.88
2023-03-12T09:03:46.257Z,4.14
2023-03-12T09:09:09.215Z,4.28
2023-03-12T09:15:01.950Z,4.37
2023-03-12T09:20:17.088Z,4.49
2023-03-12T09:25:39.075Z,4.63
2023-03-12T09:31:02.652Z,4.76
2023-03-12T09:36:24.584Z,4.88
2023-03-12T09:41:50.496Z,4.81
2023-03-12T09:47:32.081Z,4.65
2023-03-12T09:53:03.458Z,4.64
2023-03-12T09:58:28.703Z,4.69
2023-03-12T10:03:58.945Z,4.76
2023-03-12T10:09:29.510Z,4.98
2023-03-12T10:15:14.117Z,5.17
2023-03-12T10:21:07.772Z,5.32
2023-03-12T10:26:35.290Z,5.39
2023-03-12T10:32:17.475Z,5.57
2023-03-12T10:37:44.144Z,5.45
2023-03-12T10:43:07.295Z,5.54
2023-03-12T10:48:29.638Z,5.70
2023-03-12T10:53:52.545Z,6.03
2023-03-12T10:59:21.507Z,6.09
2023-03-12T11:04:51.310Z,6.08
2023-03-12T11:10:18.985Z,6.25
2023-03-12T11:15:43.562Z,6.20
2023-03-12T11:21:08.747Z,6.17
2023-03-12T11:26:35.304Z,6.50
2023-03-12T11:32:15.696Z,6.61
2023-03-12T11:38:15.588Z,6.54
2023-03-12T11:43:46.289Z,6.48
2023-03-12T11:49:37.227Z,6.44
2023-03-12T11:55:17.005Z,6.28
2023-03-12T12:00:56.074Z,6.46
2023-03-12T12:06:23.278Z,6.67
2023-03-12T12:11:57.423Z,6.76
2023-03-12T12:17:33.386Z,6.75
2023-03-12T12:22:57.697Z,6.74
2023-03-12T12:28:28.960Z,6.87
2023-03-12T12:33:56.657Z,7.07
2023-03-12T12:39:31.486Z,7.15
2023-03-12T12:44:55.462Z,7.11
2023-03-12T12:50:20.975Z,7.18
2023-03-12T12:56:10.204Z,7.17
2023-03-12T13:01:34.486Z,7.07
2023-03-12T13:07:13.041Z,6.98
2023-03-12T13:12:48.607Z,6.77
2023-03-12T13:18:26.677Z,6.74
2023-03-12T13:24:18.300Z,6.79
2023-03-12T13:29:42.262Z,6.77
2023-03-12T13:35:16.231Z,6.87
2023-03-12T13:40:53.070Z,7.00
2023-03-12T13:46:14.815Z,7.12
2023-03-12T13:51:46.595Z,7.12
2023-03-12T13:57:21.774Z,7.06
2023-03-12T14:02:49.591Z,7.08
2023-03-12T14:08:22.092Z,7.00
2023-03-12T14:13:46.434Z,6.93
2023-03-12T14:19:13.106Z,6.91
2023-03-12T14:24:39.132Z,6.93
2023-03-12T14:30:12.089Z,7.00
2023-03-12T14:35:40.457Z,6.99
2023-03-12T14:41:06.662Z,6.94
2023-03-12T14:46:28.437Z,6.85
2023-03-12T14:51:50.541Z,6.79
2023-03-12T14:57:15.777Z,6.68
2023-03-12T15:02:38.970Z,6.62
2023-03-12T15:08:03.693Z,6.63
2023-03-12T15:13:27.725Z,6.58
2023-03-12T15:18:50.345Z,6.48
2023-03-12T15:24:13.807Z,6.32
2023-03-12T15:29:40.976Z,6.20
2023-03-12T15:35:13.108Z,6.10
2023-03-12T15:40:36.500Z,6.07
2023-03-12T15:46:02.820Z,6.02
2023-03-12T15:51:32.344Z,5.87
2023-03-12T15:56:55.740Z,5.77
2023-03-12T16:02:36.472Z,5.69
2023-03-12T16:08:01.789Z,5.57
2023-03-12T16:13:28.484Z,5.52
2023-03-12T16:18:50.270Z,5.52
2023-03-12T16:24:12.283Z,5.40
2023-03-12T16:29:36.859Z,5.35
2023-03-12T16:34:58.863Z,5.28
2023-03-12T16:40:32.502Z,5.17
2023-03-12T16:45:56.863Z,5.16
2023-03-12T16:51:18.956Z,5.14
2023-03-12T16:56:44.368Z,5.12
2023-03-12T17:02:15.911Z,5.10
2023-03-12T17:07:37.831Z,5.04
2023-03-12T17:13:00.145Z,5.02
2023-03-12T17:18:22.409Z,5.00
2023-03-12T17:23:46.917Z,4.90
2023-03-12T17:29:08.965Z,4.74
2023-03-12T17:34:31.162Z,4.67
2023-03-12T17:39:53.180Z,4.62
2023-03-12T17:45:15.343Z,4.65
2023-03-12T17:50:37.658Z,4.63
2023-03-12T17:56:00.038Z,4.57
2023-03-12T18:01:22.025Z,4.48
2023-03-12T18:06:43.992Z,4.58
2023-03-12T18:12:06.151Z,4.66
2023-03-12T18:17:27.916Z,4.64
2023-03-12T18:22:51.041Z,4.60
2023-03-12T18:28:14.204Z,4.71
2023-03-12T18:33:36.624Z,4.79
2023-03-12T18:38:59.950Z,4.80
2023-03-12T18:44:22.126Z,4.82
2023-03-12T18:49:44.314Z,4.81
2023-03-12T18:55:06.737Z,4.76
2023-03-12T19:00:28.876Z,4.67
2023-03-12T19:06:01.620Z,4.53
2023-03-12T19:11:24.241Z,4.51
2023-03-12T19:16:46.018Z,4.45
2023-03-12T19:22:08.225Z,4.41
2023-03-12T19:27:30.344Z,4.44
2023-03-12T19:32:52.101Z,4.46
2023-03-12T19:38:13.969Z,4.45
2023-03-12T19:43:37.440Z,4.45
2023-03-12T19:48:59.315Z,4.47
2023-03-12T19:54:21.290Z,4.45
2023-03-12T19:59:43.541Z,4.38
2023-03-12T20:05:06.185Z,4.40
2023-03-12T20:10:29.626Z,4.41
2023-03-12T20:15:51.632Z,4.44
2023-03-12T20:21:13.863Z,4.47
2023-03-12T20:26:39.926Z,4.42
2023-03-12T20:32:02.179Z,4.42
2023-03-12T20:37:24.168Z,4.38
2023-03-12T20:42:46.993Z,4.36
2023-03-12T20:48:10.737Z,4.42
2023-03-12T20:53:32.327Z,4.44
2023-03-12T20:58:54.408Z,4.54
2023-03-12T21:04:18.742Z,4.54
2023-03-12T21:09:40.649Z,4.50
2023-03-12T21:15:06.594Z,4.49
2023-03-12T21:20:28.611Z,4.53
2023-03-12T21:25:58.852Z,4.70
2023-03-12T21:31:21.048Z,4.75
2023-03-12T21:36:43.021Z,4.71
2023-03-12T21:42:05.309Z,4.68
2023-03-12T21:47:27.073Z,4.73
2023-03-12T21:52:49.757Z,4.81
2023-03-12T21:58:12.972Z,4.81
2023-03-12T22:03:35.257Z,4.78
2023-03-12T22:08:57.158Z,4.80
2023-03-12T22:14:18.977Z,4.79
2023-03-12T22:19:42.056Z,4.75
2023-03-12T22:25:04.634Z,4.75
2023-03-12T22:30:26.761Z,4.73
2023-03-12T22:35:48.556Z,4.74
2023-03-12T22:41:18.121Z,4.79
2023-03-12T22:46:40.326Z,4.86
2023-03-12T22:52:02.455Z,4.91
2023-03-12T22:57:24.127Z,4.94
2023-03-12T23:02:47.269Z,4.95
2023-03-12T23:08:09.104Z,5.01
2023-03-12T23:13:33.696Z,5.05
2023-03-12T23:18:56.746Z,5.12
2023-03-12T23:24:18.696Z,5.12
2023-03-12T23:29:40.526Z,5.11
2023-03-12T23:35:02.480Z,5.11
2023-03-12T23:40:24.392Z,5.12
2023-03-12T23:45:46.566Z,5.14
2023-03-12T23:51:10.360Z,5.17
2023-03-12T23:56:35.178Z,5.19
